Time;durP1;ratioP1;P1;durP2;ratioP2;P2;SDS_P1;SDS_P2;PMS_P1;PMS_P2;Temp;Humidity;BMP_temperature;BMP_pressure;BME280_temperature;BME280_humidity;BME280_pressure;Samples;Min_cycle;Max_cycle;Signal;HPM_P1;HPM_P2
2023/08/02 00:01:48;;;;;;;4.50;0.90;;;;;;;17.63;100.00;98800.25;5023203;28;20041;-56
2023/08/02 00:04:15;;;;;;;5.90;0.80;;;;;;;17.60;100.00;98790.06;5012328;28;20026;-61
2023/08/02 00:06:41;;;;;;;4.13;1.17;;;;;;;17.62;100.00;98777.19;5018293;28;20029;-54
2023/08/02 00:09:06;;;;;;;5.00;0.98;;;;;;;17.64;100.00;98774.25;5019529;28;20328;-56
2023/08/02 00:11:31;;;;;;;2.92;0.60;;;;;;;17.69;100.00;98765.38;5020462;28;20050;-54
2023/08/02 00:13:57;;;;;;;8.20;1.00;;;;;;;17.56;100.00;98762.25;5017575;28;20367;-60
2023/08/02 00:16:23;;;;;;;5.55;1.35;;;;;;;17.61;100.00;98753.38;5022144;28;20116;-56
2023/08/02 00:18:48;;;;;;;1.75;0.65;;;;;;;17.67;100.00;98757.59;5013811;28;20079;-58
2023/08/02 00:21:13;;;;;;;3.55;1.88;;;;;;;17.59;100.00;98742.13;5013449;28;20033;-55
2023/08/02 00:23:39;;;;;;;3.28;0.82;;;;;;;17.49;100.00;98740.31;5017311;28;20064;-59
2023/08/02 00:26:04;;;;;;;4.13;1.05;;;;;;;17.52;100.00;98726.34;5024093;28;20063;-57
2023/08/02 00:28:29;;;;;;;4.18;0.82;;;;;;;17.51;100.00;98708.69;5021606;28;20030;-66
2023/08/02 00:30:55;;;;;;;4.45;0.85;;;;;;;17.39;100.00;98709.03;5017679;28;20036;-65
2023/08/02 00:33:20;;;;;;;2.10;1.15;;;;;;;17.37;100.00;98713.88;5016318;28;20076;-59
2023/08/02 00:35:46;;;;;;;9.00;1.38;;;;;;;17.37;100.00;98703.16;5026722;28;20057;-59
2023/08/02 00:38:13;;;;;;;8.45;2.58;;;;;;;17.33;100.00;98704.00;5019221;28;20030;-68
2023/08/02 00:40:38;;;;;;;3.20;1.45;;;;;;;17.33;100.00;98698.66;5009614;28;20037;-64
2023/08/02 00:43:04;;;;;;;5.68;1.27;;;;;;;17.27;100.00;98694.38;5020174;28;20095;-66
2023/08/02 00:45:29;;;;;;;5.03;1.90;;;;;;;17.22;100.00;98677.28;5020996;28;20582;-67
2023/08/02 00:47:57;;;;;;;5.32;1.35;;;;;;;17.15;100.00;98666.09;5013506;28;20099;-67
2023/08/02 00:50:23;;;;;;;7.40;1.48;;;;;;;17.17;100.00;98658.56;5017049;28;20112;-62
2023/08/02 00:52:50;;;;;;;3.22;0.80;;;;;;;17.23;100.00;98662.81;5017775;28;20034;-66
2023/08/02 00:55:15;;;;;;;6.07;1.67;;;;;;;17.14;100.00;98642.25;5015817;28;20029;-64
2023/08/02 00:57:41;;;;;;;6.88;0.85;;;;;;;17.08;100.00;98646.84;5021056;28;20111;-64
2023/08/02 01:00:06;;;;;;;2.85;0.40;;;;;;;17.01;100.00;98649.03;5011527;28;20025;-67
2023/08/02 01:02:32;;;;;;;6.43;1.85;;;;;;;17.03;100.00;98638.84;5010219;28;20046;-68
2023/08/02 01:04:57;;;;;;;2.15;0.50;;;;;;;17.00;100.00;98626.81;5021459;28;20481;-63
2023/08/02 01:07:25;;;;;;;3.90;1.15;;;;;;;17.05;100.00;98617.94;5015119;28;20495;-63
2023/08/02 01:10:01;;;;;;;6.57;1.02;;;;;;;17.07;100.00;98602.41;5022074;28;20488;-63
2023/08/02 01:12:29;;;;;;;2.15;0.43;;;;;;;17.06;100.00;98602.69;5022266;28;20052;-61
2023/08/02 01:14:57;;;;;;;2.10;0.68;;;;;;;17.06;100.00;98597.31;5015358;28;20051;-58
2023/08/02 01:17:25;;;;;;;3.63;0.20;;;;;;;17.04;100.00;98589.59;5012913;28;20112;-65
2023/08/02 01:19:51;;;;;;;2.72;1.63;;;;;;;17.04;100.00;98570.03;5022631;28;20022;-64
2023/08/02 01:22:16;;;;;;;0.65;0.20;;;;;;;16.97;100.00;98570.38;5020002;28;20046;-66
2023/08/02 01:24:41;;;;;;;0.35;0.25;;;;;;;16.89;100.00;98560.25;5015680;28;20545;-64
2023/08/02 01:27:16;;;;;;;0.20;0.08;;;;;;;16.91;100.00;98545.50;5022237;28;20441;-64
2023/08/02 01:29:46;;;;;;;1.90;0.13;;;;;;;16.93;100.00;98540.66;5005597;28;20052;-60
2023/08/02 01:32:11;;;;;;;0.98;0.30;;;;;;;16.95;100.00;98522.44;5015765;28;20477;-62
2023/08/02 01:34:38;;;;;;;0.90;0.20;;;;;;;16.92;100.00;98511.50;5015365;28;20042;-65
2023/08/02 01:37:04;;;;;;;0.88;0.08;;;;;;;16.91;100.00;98504.53;5022231;28;20037;-62
2023/08/02 01:39:29;;;;;;;2.65;0.15;;;;;;;16.97;100.00;98493.53;5013589;28;20037;-60
2023/08/02 01:41:54;;;;;;;1.50;0.38;;;;;;;16.99;100.00;98495.94;5015100;28;20079;-67
2023/08/02 01:44:20;;;;;;;0.20;0.20;;;;;;;16.93;100.00;98483.66;5016140;28;20125;-57
2023/08/02 01:46:45;;;;;;;1.75;0.10;;;;;;;16.95;100.00;98465.44;5019900;28;20033;-63
2023/08/02 01:49:10;;;;;;;0.35;0.10;;;;;;;16.99;100.00;98466.47;5019254;28;20180;-64
2023/08/02 01:51:35;;;;;;;0.43;0.00;;;;;;;16.99;100.00;98453.91;5023199;28;20204;-63
2023/08/02 01:54:01;;;;;;;1.40;0.43;;;;;;;17.03;100.00;98443.41;5017661;28;20173;-66
2023/08/02 01:56:26;;;;;;;0.75;0.68;;;;;;;17.03;100.00;98438.06;5021007;28;20090;-59
2023/08/02 01:58:51;;;;;;;1.20;0.00;;;;;;;17.06;100.00;98432.13;5021863;28;20029;-63
2023/08/02 02:01:17;;;;;;;1.40;0.30;;;;;;;17.04;100.00;98423.59;5030929;28;20124;-63
2023/08/02 02:03:42;;;;;;;0.63;0.10;;;;;;;17.05;100.00;98414.47;5008259;28;20029;-62
2023/08/02 02:06:07;;;;;;;4.75;0.10;;;;;;;17.06;100.00;98405.34;5018013;28;21401;-64
2023/08/02 02:08:33;;;;;;;1.30;0.30;;;;;;;17.07;100.00;98385.56;5015694;28;20845;-62
2023/08/02 02:10:58;;;;;;;0.35;0.00;;;;;;;17.06;100.00;98388.50;5001201;28;20495;-63
2023/08/02 02:13:24;;;;;;;0.17;0.00;;;;;;;17.06;100.00;98381.25;5018275;28;20048;-67
2023/08/02 02:15:50;;;;;;;0.28;0.00;;;;;;;17.11;100.00;98367.81;5014505;28;20028;-62
2023/08/02 02:18:16;;;;;;;1.50;0.20;;;;;;;17.11;100.00;98359.00;5001923;28;20033;-60
2023/08/02 02:20:41;;;;;;;4.28;0.80;;;;;;;17.08;100.00;98354.22;5014138;28;20055;-65
2023/08/02 02:23:07;;;;;;;0.52;0.40;;;;;;;17.14;100.00;98353.88;5026844;28;20033;-56
2023/08/02 02:25:32;;;;;;;0.93;0.10;;;;;;;17.12;100.00;98331.94;5015834;28;20044;-63
2023/08/02 02:27:58;;;;;;;0.28;0.00;;;;;;;17.09;100.00;98324.50;5014859;28;20137;-60
2023/08/02 02:30:23;;;;;;;0.00;0.00;;;;;;;17.09;100.00;98323.66;5018025;28;20113;-62
2023/08/02 02:32:49;;;;;;;0.80;0.00;;;;;;;17.13;100.00;98311.31;5015524;28;20044;-63
2023/08/02 02:35:14;;;;;;;0.00;0.00;;;;;;;17.13;100.00;98304.06;5009047;28;20388;-63
2023/08/02 02:37:40;;;;;;;0.32;0.28;;;;;;;17.13;100.00;98282.66;5016653;28;20029;-65
2023/08/02 02:40:07;;;;;;;0.10;0.00;;;;;;;17.15;100.00;98285.06;5018327;28;20021;-62
2023/08/02 02:42:32;;;;;;;0.00;0.00;;;;;;;17.13;100.00;98274.63;5017174;28;20479;-66
2023/08/02 02:44:57;;;;;;;0.90;0.10;;;;;;;17.13;100.00;98261.22;5013148;28;20045;-68
2023/08/02 02:47:23;;;;;;;0.25;0.00;;;;;;;17.15;100.00;98247.56;5013682;28;20021;-62
2023/08/02 02:49:48;;;;;;;0.20;0.20;;;;;;;17.18;100.00;98244.31;5017852;28;20036;-66
2023/08/02 02:52:13;;;;;;;0.25;0.15;;;;;;;17.15;100.00;98240.31;5012570;28;20036;-65
2023/08/02 02:54:39;;;;;;;1.88;0.00;;;;;;;17.14;100.00;98230.72;5019110;28;20033;-65
2023/08/02 02:57:05;;;;;;;0.25;0.00;;;;;;;17.10;100.00;98237.72;5010167;28;20025;-64
2023/08/02 02:59:30;;;;;;;1.02;0.00;;;;;;;17.04;100.00;98220.13;5017722;28;20098;-54
2023/08/02 03:01:56;;;;;;;1.70;0.10;;;;;;;17.03;100.00;98223.88;5013987;28;20050;-58
2023/08/02 03:04:21;;;;;;;0.30;0.00;;;;;;;17.10;100.00;98213.63;5010382;28;20128;-64
2023/08/02 03:06:46;;;;;;;0.10;0.00;;;;;;;17.12;100.00;98216.81;5029964;28;20502;-64
2023/08/02 03:09:11;;;;;;;0.10;0.00;;;;;;;17.16;100.00;98199.06;5018770;28;20028;-60
2023/08/02 03:11:37;;;;;;;0.32;0.00;;;;;;;17.13;100.00;98191.63;5024462;28;20034;-59
2023/08/02 03:14:04;;;;;;;0.00;0.00;;;;;;;17.14;100.00;98192.41;5019618;28;20394;-62
2023/08/02 03:16:29;;;;;;;0.52;0.00;;;;;;;17.17;100.00;98181.94;5017804;28;20040;-59
2023/08/02 03:18:55;;;;;;;5.57;0.68;;;;;;;17.22;100.00;98183.75;5022755;28;20029;-62
2023/08/02 03:21:20;;;;;;;0.05;0.00;;;;;;;17.18;100.00;98178.16;5020597;28;20055;-62
2023/08/02 03:23:45;;;;;;;0.00;0.00;;;;;;;17.23;100.00;98167.38;5020877;28;20037;-60
2023/08/02 03:26:11;;;;;;;1.98;0.00;;;;;;;17.21;100.00;98172.22;5015409;28;20087;-60
2023/08/02 03:28:36;;;;;;;0.45;0.00;;;;;;;17.26;100.00;98183.94;5019928;28;20270;-63
2023/08/02 03:31:01;;;;;;;0.00;0.00;;;;;;;17.29;100.00;98169.97;5018551;28;20029;-62
2023/08/02 03:33:27;;;;;;;0.00;0.00;;;;;;;17.31;100.00;98171.28;5012002;28;20125;-61
2023/08/02 03:35:52;;;;;;;0.00;0.00;;;;;;;17.34;100.00;98172.56;5021539;28;20029;-59
2023/08/02 03:38:17;;;;;;;0.00;0.00;;;;;;;17.38;100.00;98168.25;5021999;28;20141;-67
2023/08/02 03:40:43;;;;;;;0.00;0.00;;;;;;;17.41;100.00;98165.75;5019880;28;20075;-62
2023/08/02 03:43:09;;;;;;;0.08;0.00;;;;;;;17.46;100.00;98158.75;5021548;28;20061;-63
2023/08/02 03:45:34;;;;;;;0.00;0.00;;;;;;;17.48;100.00;98149.34;5017840;28;20038;-64
2023/08/02 03:47:59;;;;;;;0.00;0.00;;;;;;;17.50;100.00;98141.78;5018874;28;20180;-66
2023/08/02 03:50:25;;;;;;;0.00;0.00;;;;;;;17.52;100.00;98138.81;5023613;28;20378;-64
2023/08/02 03:52:50;;;;;;;0.00;0.00;;;;;;;17.50;100.00;98130.28;5019695;28;20537;-66
2023/08/02 03:55:15;;;;;;;0.40;0.00;;;;;;;17.50;100.00;98138.31;5021752;28;20036;-60
2023/08/02 03:57:41;;;;;;;0.00;0.00;;;;;;;17.54;100.00;98131.28;5020691;28;20034;-63
2023/08/02 04:00:07;;;;;;;0.22;0.00;;;;;;;17.54;100.00;98137.44;5016648;28;20147;-62
2023/08/02 04:02:33;;;;;;;0.00;0.00;;;;;;;17.52;100.00;98128.09;5024055;28;20049;-60
2023/08/02 04:04:58;;;;;;;0.00;0.00;;;;;;;17.45;100.00;98120.47;5015316;28;20029;-63
2023/08/02 04:07:24;;;;;;;0.30;0.00;;;;;;;17.44;100.00;98126.88;5015467;28;20815;-62
2023/08/02 04:09:49;;;;;;;0.00;0.00;;;;;;;17.48;100.00;98124.41;5020297;28;20025;-64
2023/08/02 04:12:17;;;;;;;0.10;0.00;;;;;;;17.54;100.00;98125.94;5014692;28;20033;-59
2023/08/02 04:14:43;;;;;;;0.08;0.08;;;;;;;17.54;100.00;98116.00;5020955;28;20044;-59
2023/08/02 04:17:08;;;;;;;1.35;0.00;;;;;;;17.57;100.00;98110.06;5011473;28;20029;-58
2023/08/02 04:19:34;;;;;;;0.00;0.00;;;;;;;17.58;100.00;98100.13;5018379;28;20140;-62
2023/08/02 04:21:59;;;;;;;0.60;0.00;;;;;;;17.61;100.00;98086.16;5017606;28;20038;-62
2023/08/02 04:24:24;;;;;;;0.20;0.00;;;;;;;17.67;100.00;98093.00;5018703;28;20022;-60
2023/08/02 04:26:49;;;;;;;0.10;0.00;;;;;;;17.68;100.00;98094.59;5018272;28;20053;-58
2023/08/02 04:29:15;;;;;;;0.00;0.00;;;;;;;17.70;100.00;98081.69;5020249;28;20513;-59
2023/08/02 04:31:40;;;;;;;0.00;0.00;;;;;;;17.70;100.00;98096.97;5018068;28;20147;-60
2023/08/02 04:34:05;;;;;;;1.63;0.10;;;;;;;17.71;100.00;98109.28;5016748;28;20419;-58
2023/08/02 04:36:31;;;;;;;0.00;0.00;;;;;;;17.77;100.00;98114.25;5014796;28;20034;-59
2023/08/02 04:38:56;;;;;;;0.00;0.00;;;;;;;17.83;100.00;98117.66;5021549;28;20382;-56
2023/08/02 04:41:22;;;;;;;0.40;0.13;;;;;;;17.86;100.00;98117.88;5019879;28;20390;-62
2023/08/02 04:43:47;;;;;;;0.47;0.00;;;;;;;17.88;100.00;98114.91;5018427;28;20648;-66
2023/08/02 04:46:13;;;;;;;0.00;0.00;;;;;;;17.85;100.00;98121.66;5013400;28;20026;-61
2023/08/02 04:48:38;;;;;;;0.00;0.00;;;;;;;17.89;100.00;98119.19;5015695;28;20545;-66
2023/08/02 04:51:07;;;;;;;0.65;0.00;;;;;;;17.91;100.00;98111.63;5019037;28;20025;-60
2023/08/02 04:53:34;;;;;;;0.00;0.00;;;;;;;17.95;100.00;98115.31;5014614;28;20474;-60
2023/08/02 04:55:59;;;;;;;0.10;0.00;;;;;;;17.97;100.00;98102.41;5009691;28;20033;-58
2023/08/02 04:58:25;;;;;;;0.13;0.00;;;;;;;18.01;100.00;98102.59;5017052;28;20041;-63
2023/08/02 05:00:50;;;;;;;0.00;0.00;;;;;;;18.04;100.00;98099.31;4991881;28;1098195;-65
2023/08/02 05:03:15;;;;;;;0.30;0.17;;;;;;;18.07;100.00;98091.50;5020166;28;20116;-60
2023/08/02 05:05:41;;;;;;;0.30;0.00;;;;;;;18.07;100.00;98088.81;5019961;28;20049;-65
2023/08/02 05:08:06;;;;;;;2.03;0.55;;;;;;;18.15;100.00;98084.63;5017876;28;20483;-59
2023/08/02 05:10:31;;;;;;;0.32;0.00;;;;;;;18.20;100.00;98089.09;5013974;28;20034;-57
2023/08/02 05:12:57;;;;;;;0.05;0.00;;;;;;;18.23;100.00;98101.91;5020758;28;20041;-56
2023/08/02 05:15:22;;;;;;;0.00;0.00;;;;;;;18.26;100.00;98101.31;5018354;28;20030;-65
2023/08/02 05:17:48;;;;;;;0.20;0.00;;;;;;;18.23;100.00;98094.66;5013336;28;20041;-60
2023/08/02 05:20:13;;;;;;;0.25;0.10;;;;;;;18.29;100.00;98092.66;5018494;28;20026;-64
2023/08/02 05:22:38;;;;;;;0.10;0.00;;;;;;;18.31;100.00;98080.53;5010164;28;20475;-61
2023/08/02 05:25:04;;;;;;;1.10;0.40;;;;;;;18.41;100.00;98079.53;5012656;28;20152;-64
2023/08/02 05:27:30;;;;;;;0.00;0.00;;;;;;;18.44;100.00;98070.88;5016397;28;20436;-61
2023/08/02 05:29:55;;;;;;;0.15;0.00;;;;;;;18.50;100.00;98072.34;5019081;28;20025;-60
2023/08/02 05:32:20;;;;;;;2.17;0.00;;;;;;;18.49;100.00;98076.16;5015227;28;20370;-59
2023/08/02 05:34:46;;;;;;;0.43;0.00;;;;;;;18.52;100.00;98080.13;5016400;28;20029;-66
2023/08/02 05:37:12;;;;;;;0.00;0.00;;;;;;;18.52;100.00;98080.91;5020391;28;20078;-58
2023/08/02 05:39:37;;;;;;;0.00;0.00;;;;;;;18.58;100.00;98070.06;5016999;28;20037;-61
2023/08/02 05:42:03;;;;;;;0.00;0.00;;;;;;;18.59;100.00;98066.28;5013979;28;20038;-64
2023/08/02 05:44:28;;;;;;;0.10;0.00;;;;;;;18.59;100.00;98063.63;5018774;28;20072;-60
2023/08/02 05:46:54;;;;;;;0.17;0.00;;;;;;;18.63;100.00;98068.06;5011228;28;20432;-58
2023/08/02 05:49:19;;;;;;;0.52;0.00;;;;;;;18.57;100.00;98063.13;5018804;28;20116;-62
2023/08/02 05:51:45;;;;;;;0.73;0.00;;;;;;;18.52;100.00;98062.13;5014995;28;20061;-64
2023/08/02 05:54:10;;;;;;;0.00;0.00;;;;;;;18.60;100.00;98073.25;5019879;28;20035;-58
2023/08/02 05:56:35;;;;;;;0.28;0.03;;;;;;;18.65;100.00;98063.19;5008757;28;20041;-57
2023/08/02 05:59:01;;;;;;;0.25;0.05;;;;;;;18.67;100.00;98057.53;5013320;28;20080;-56
2023/08/02 06:01:26;;;;;;;0.00;0.00;;;;;;;18.68;100.00;98061.78;5017364;28;20422;-56
2023/08/02 06:03:51;;;;;;;0.52;0.00;;;;;;;18.69;100.00;98063.34;5018212;28;20044;-56
2023/08/02 06:06:17;;;;;;;3.30;0.05;;;;;;;18.65;100.00;98065.06;5017683;28;20025;-57
2023/08/02 06:08:43;;;;;;;3.70;0.00;;;;;;;18.68;100.00;98065.25;5025850;28;20537;-57
2023/08/02 06:11:09;;;;;;;1.25;0.10;;;;;;;18.64;100.00;98058.91;5016920;28;20021;-55
2023/08/02 06:13:34;;;;;;;1.10;0.05;;;;;;;18.59;100.00;98056.34;5019501;28;20052;-48
2023/08/02 06:15:59;;;;;;;0.30;0.00;;;;;;;18.38;100.00;98058.69;5018912;28;20034;-56
2023/08/02 06:18:25;;;;;;;1.13;0.00;;;;;;;18.40;100.00;98061.84;5009147;28;20029;-57
2023/08/02 06:20:50;;;;;;;0.98;0.00;;;;;;;18.44;100.00;98060.16;5017979;28;20136;-56
2023/08/02 06:23:15;;;;;;;0.00;0.00;;;;;;;18.53;100.00;98052.16;5013208;28;20033;-56
2023/08/02 06:25:41;;;;;;;0.30;0.00;;;;;;;18.45;100.00;98052.91;5018046;28;20029;-51
2023/08/02 06:28:06;;;;;;;3.40;0.00;;;;;;;18.51;100.00;98057.84;5026679;28;20339;-56
2023/08/02 06:30:32;;;;;;;0.00;0.00;;;;;;;18.60;100.00;98035.66;5011011;28;20026;-57
2023/08/02 06:32:57;;;;;;;0.60;0.00;;;;;;;18.70;100.00;98051.53;5018489;28;20041;-63
2023/08/02 06:35:22;;;;;;;0.08;0.00;;;;;;;18.74;100.00;98052.50;5018892;28;20048;-57
2023/08/02 06:37:48;;;;;;;0.30;0.10;;;;;;;18.81;100.00;98050.22;5007805;28;20045;-60
2023/08/02 06:40:13;;;;;;;1.98;0.00;;;;;;;18.94;100.00;98038.63;5016475;28;20036;-46
2023/08/02 06:42:38;;;;;;;0.63;0.00;;;;;;;19.10;100.00;98036.41;5018761;28;20033;-59
2023/08/02 06:45:04;;;;;;;7.97;0.75;;;;;;;19.15;100.00;98033.59;5017251;28;20026;-57
2023/08/02 06:47:29;;;;;;;0.63;0.15;;;;;;;19.15;100.00;98046.22;5016903;28;20040;-57
2023/08/02 06:49:55;;;;;;;0.28;0.00;;;;;;;19.18;100.00;98032.19;5011535;28;20029;-57
2023/08/02 06:52:20;;;;;;;0.35;0.00;;;;;;;19.14;100.00;98036.56;5007693;28;20728;-54
2023/08/02 06:54:45;;;;;;;1.90;0.88;;;;;;;19.05;100.00;98028.47;5012075;28;20033;-60
2023/08/02 06:57:11;;;;;;;1.23;0.00;;;;;;;18.96;100.00;98031.06;5015122;28;20109;-55
2023/08/02 06:59:36;;;;;;;0.30;0.00;;;;;;;18.92;100.00;98026.63;5016816;28;20057;-51
2023/08/02 07:02:01;;;;;;;0.70;0.00;;;;;;;18.71;100.00;98023.59;5011659;28;20050;-51
2023/08/02 07:04:27;;;;;;;0.65;0.00;;;;;;;18.69;100.00;98009.69;5016244;28;20083;-55
2023/08/02 07:06:52;;;;;;;0.00;0.00;;;;;;;18.74;100.00;98012.25;5012963;28;20195;-64
2023/08/02 07:09:17;;;;;;;1.17;0.00;;;;;;;18.76;100.00;98011.97;5016608;28;20037;-59
2023/08/02 07:11:43;;;;;;;0.73;0.22;;;;;;;18.82;100.00;98002.69;5021318;28;20487;-56
2023/08/02 07:14:08;;;;;;;0.00;0.00;;;;;;;18.81;100.00;97993.84;5014899;28;20041;-69
2023/08/02 07:16:33;;;;;;;0.20;0.00;;;;;;;18.89;100.00;98009.22;5009367;28;20045;-53
2023/08/02 07:19:02;;;;;;;0.55;0.00;;;;;;;18.91;100.00;98003.56;5016709;28;20025;-57
2023/08/02 07:21:29;;;;;;;2.63;0.00;;;;;;;19.03;100.00;98014.56;5010671;28;20387;-59
2023/08/02 07:23:55;;;;;;;0.00;0.00;;;;;;;19.08;100.00;98016.31;5010694;28;20017;-63
2023/08/02 07:26:22;;;;;;;2.83;0.17;;;;;;;19.16;100.00;98008.31;5016809;28;20490;-63
2023/08/02 07:28:47;;;;;;;0.40;0.00;;;;;;;19.16;100.00;97989.50;5016141;28;20030;-61
2023/08/02 07:31:12;;;;;;;0.63;0.00;;;;;;;19.23;100.00;97999.78;5017119;28;20535;-53
2023/08/02 07:33:38;;;;;;;0.60;0.00;;;;;;;19.16;100.00;97992.19;5015271;28;20042;-59
2023/08/02 07:36:04;;;;;;;1.25;0.00;;;;;;;19.14;100.00;97998.97;5017655;28;20057;-57
2023/08/02 07:38:30;;;;;;;0.60;0.22;;;;;;;19.20;100.00;97995.03;5011446;28;20467;-64
2023/08/02 07:40:56;;;;;;;0.75;0.00;;;;;;;19.19;100.00;98006.91;5013761;28;20037;-50
2023/08/02 07:43:21;;;;;;;2.08;0.80;;;;;;;19.35;100.00;97994.66;5017725;28;20025;-69
2023/08/02 07:45:46;;;;;;;1.95;0.10;;;;;;;19.44;100.00;98001.94;5011820;28;20514;-66
2023/08/02 07:48:12;;;;;;;0.05;0.00;;;;;;;19.46;100.00;98005.91;5011962;28;20542;-64
2023/08/02 07:50:37;;;;;;;1.55;0.00;;;;;;;19.28;100.00;97991.59;5002993;28;20340;-56
2023/08/02 07:53:02;;;;;;;1.67;0.03;;;;;;;19.31;100.00;97996.38;4997729;28;20056;-59
2023/08/02 07:55:28;;;;;;;1.15;0.10;;;;;;;19.53;100.00;97995.53;5005012;28;20120;-67
2023/08/02 07:57:53;;;;;;;2.38;0.03;;;;;;;19.44;100.00;97993.88;4997280;28;20401;-67
2023/08/02 08:00:19;;;;;;;0.63;0.10;;;;;;;19.29;100.00;97990.53;4997218;28;20052;-49
2023/08/02 08:02:44;;;;;;;2.40;0.00;;;;;;;19.27;100.00;97979.28;4995973;28;20073;-67
2023/08/02 08:05:09;;;;;;;0.65;0.00;;;;;;;19.40;100.00;97972.25;4997860;28;20065;-60
2023/08/02 08:07:35;;;;;;;0.55;0.00;;;;;;;19.45;100.00;97982.84;4998025;28;20033;-67
2023/08/02 08:10:00;;;;;;;2.95;0.30;;;;;;;19.38;100.00;97980.59;4985440;28;20399;-62
2023/08/02 08:12:26;;;;;;;0.30;0.00;;;;;;;19.51;100.00;97988.88;5013033;28;20037;-65
2023/08/02 08:14:51;;;;;;;1.45;0.10;;;;;;;19.75;100.00;97967.81;5009878;28;20404;-61
2023/08/02 08:17:17;;;;;;;0.00;0.00;;;;;;;20.05;100.00;97976.09;5016549;28;20057;-65
2023/08/02 08:19:43;;;;;;;0.00;0.00;;;;;;;20.01;100.00;97967.88;5009143;28;20446;-56
2023/08/02 08:22:08;;;;;;;1.40;0.77;;;;;;;20.13;100.00;97966.44;5013797;28;20048;-68
2023/08/02 08:24:34;;;;;;;0.30;0.30;;;;;;;20.03;100.00;97968.34;5016216;28;20030;-63
2023/08/02 08:26:59;;;;;;;1.00;0.00;;;;;;;20.32;100.00;97956.19;5014449;28;20378;-48
2023/08/02 08:29:26;;;;;;;0.50;0.00;;;;;;;20.75;100.00;97962.69;5012015;28;20372;-66
2023/08/02 08:31:52;;;;;;;0.43;0.25;;;;;;;20.57;100.00;97956.53;5009352;28;20041;-64
2023/08/02 08:34:18;;;;;;;1.05;0.22;;;;;;;20.70;100.00;97955.56;5007637;28;20070;-49
2023/08/02 08:36:43;;;;;;;2.83;0.15;;;;;;;20.84;100.00;97956.19;5013781;28;20037;-61
2023/08/02 08:39:09;;;;;;;3.13;0.00;;;;;;;20.81;100.00;97967.59;5012159;28;21008;-57
2023/08/02 08:41:34;;;;;;;0.20;0.00;;;;;;;20.71;100.00;97957.16;5012321;28;20102;-59
2023/08/02 08:44:01;;;;;;;0.20;0.00;;;;;;;20.33;100.00;97951.59;5017354;28;20021;-51
2023/08/02 08:46:30;;;;;;;0.90;0.00;;;;;;;20.07;100.00;97936.22;5013575;28;20033;-50
2023/08/02 08:48:55;;;;;;;0.63;0.45;;;;;;;20.32;100.00;97950.03;5013395;28;20037;-55
2023/08/02 08:51:22;;;;;;;1.45;0.00;;;;;;;20.41;100.00;97956.97;5005032;28;20470;-64
2023/08/02 08:53:48;;;;;;;3.55;0.63;;;;;;;20.21;100.00;97941.44;5014246;28;20719;-66
2023/08/02 08:56:15;;;;;;;1.85;0.00;;;;;;;20.09;100.00;97942.09;5015218;28;20068;-56
2023/08/02 08:58:41;;;;;;;3.50;1.08;;;;;;;20.15;100.00;97930.06;5005669;28;20029;-56
2023/08/02 09:01:06;;;;;;;1.95;0.93;;;;;;;20.49;100.00;97929.25;5013445;28;20168;-66
2023/08/02 09:03:33;;;;;;;2.75;0.20;;;;;;;20.60;100.00;97940.53;5016364;28;20533;-47
2023/08/02 09:06:00;;;;;;;4.72;0.60;;;;;;;20.56;100.00;97938.78;5009877;28;20030;-59
2023/08/02 09:08:26;;;;;;;0.40;0.00;;;;;;;20.53;100.00;97929.44;5009036;28;20033;-65
2023/08/02 09:10:52;;;;;;;1.23;0.00;;;;;;;20.75;100.00;97941.91;5012707;28;20025;-50
2023/08/02 09:13:25;;;;;;;2.72;0.00;;;;;;;20.80;100.00;97933.69;5009423;28;20026;-64
2023/08/02 09:16:11;;;;;;;2.28;0.50;;;;;;;20.98;100.00;97923.66;5010054;28;20060;-61
2023/08/02 09:18:38;;;;;;;0.60;0.10;;;;;;;21.02;100.00;97926.50;5009666;28;20029;-49
2023/08/02 09:21:04;;;;;;;0.20;0.10;;;;;;;20.88;100.00;97930.19;5009504;28;20099;-65
2023/08/02 09:23:29;;;;;;;1.52;0.00;;;;;;;20.70;100.00;97934.00;5014775;28;20111;-63
2023/08/02 09:26:21;;;;;;;0.13;0.00;;;;;;;20.68;100.00;97931.66;5014680;28;20608;-54
2023/08/02 09:29:04;;;;;;;0.00;0.00;;;;;;;20.79;100.00;97934.81;5017550;28;20378;-65
2023/08/02 09:31:33;;;;;;;3.70;0.65;;;;;;;20.99;100.00;97924.44;5011147;28;21409;-56
2023/08/02 09:33:58;;;;;;;1.30;0.00;;;;;;;21.00;100.00;97918.75;5011053;28;20038;-61
2023/08/02 09:36:32;;;;;;;0.50;0.00;;;;;;;20.97;100.00;97929.38;5008558;28;20367;-51
2023/08/02 09:39:09;;;;;;;5.68;1.23;;;;;;;20.83;100.00;97927.69;5013181;28;20056;-62
2023/08/02 09:41:35;;;;;;;0.40;0.00;;;;;;;20.95;100.00;97924.31;5013360;28;20064;-51
2023/08/02 09:44:00;;;;;;;0.95;0.00;;;;;;;20.91;100.00;97913.38;5010912;28;20164;-51
2023/08/02 09:46:33;;;;;;;0.10;0.00;;;;;;;20.59;100.00;97906.63;5013693;28;20045;-50
2023/08/02 09:48:59;;;;;;;1.35;0.00;;;;;;;20.76;100.00;97910.44;5010927;28;20425;-55
2023/08/02 09:51:41;;;;;;;3.35;0.00;;;;;;;21.03;100.00;97906.53;5015560;28;20382;-59
2023/08/02 09:54:07;;;;;;;1.80;0.00;;;;;;;21.45;100.00;97907.50;5013587;28;20037;-57
2023/08/02 09:56:35;;;;;;;4.53;0.20;;;;;;;21.37;100.00;97896.72;5011259;28;20041;-54
2023/08/02 09:59:02;;;;;;;6.95;0.10;;;;;;;21.69;100.00;97890.72;5011797;28;20120;-58
2023/08/02 10:01:28;;;;;;;0.63;0.00;;;;;;;22.05;100.00;97893.97;5011510;28;20045;-56
2023/08/02 10:03:58;;;;;;;2.70;0.00;;;;;;;22.10;100.00;97896.47;5010937;28;20048;-61
2023/08/02 10:06:29;;;;;;;2.40;0.10;;;;;;;21.85;100.00;97896.31;5010541;28;20033;-50
2023/08/02 10:09:00;;;;;;;1.95;0.22;;;;;;;21.70;100.00;97904.97;5010777;28;20398;-61
2023/08/02 10:11:27;;;;;;;1.63;0.10;;;;;;;21.32;100.00;97901.19;5014550;28;20079;-57
2023/08/02 10:13:54;;;;;;;5.05;0.57;;;;;;;21.31;100.00;97915.78;5010713;28;20220;-55
2023/08/02 10:16:23;;;;;;;1.58;0.20;;;;;;;21.22;100.00;97911.53;5014796;28;20132;-45
2023/08/02 10:18:51;;;;;;;0.73;0.30;;;;;;;21.26;100.00;97918.66;5015907;28;20034;-62
2023/08/02 10:21:17;;;;;;;8.30;0.90;;;;;;;21.45;100.00;97906.69;5015751;28;20029;-50
2023/08/02 10:23:42;;;;;;;2.92;0.60;;;;;;;21.70;100.00;97907.69;5015957;28;20322;-53
2023/08/02 10:26:08;;;;;;;2.80;0.52;;;;;;;21.74;100.00;97903.22;5010023;28;20045;-65
2023/08/02 10:28:34;;;;;;;2.50;0.20;;;;;;;21.73;100.00;97915.09;5010265;28;20033;-56
2023/08/02 10:31:02;;;;;;;3.25;0.38;;;;;;;21.38;100.00;97911.81;5014574;28;20298;-64
2023/08/02 10:33:28;;;;;;;1.40;0.15;;;;;;;21.32;100.00;97905.78;5011533;28;20473;-55
2023/08/02 10:36:01;;;;;;;8.35;0.50;;;;;;;21.12;100.00;97905.41;5007963;28;20094;-60
2023/08/02 10:38:38;;;;;;;4.47;0.38;;;;;;;21.24;100.00;97917.38;5013491;28;20470;-58
2023/08/02 10:41:09;;;;;;;1.20;0.10;;;;;;;21.64;100.00;97917.09;5013515;28;20034;-55
2023/08/02 10:43:54;;;;;;;2.50;0.00;;;;;;;22.05;100.00;97907.47;5011113;28;20420;-48
2023/08/02 10:46:27;;;;;;;1.10;0.08;;;;;;;21.91;100.00;97900.38;5011918;28;20026;-61
2023/08/02 10:48:54;;;;;;;5.32;1.05;;;;;;;21.68;100.00;97897.22;5008742;28;20357;-63
2023/08/02 10:51:31;;;;;;;5.70;0.45;;;;;;;21.60;100.00;97908.06;5008295;28;20103;-57
2023/08/02 10:54:28;;;;;;;3.80;0.60;;;;;;;21.58;100.00;97902.97;5002898;28;20041;-59
2023/08/02 10:56:54;;;;;;;4.68;0.40;;;;;;;21.60;100.00;97903.44;5008729;28;20164;-57
2023/08/02 10:59:23;;;;;;;2.60;0.10;;;;;;;21.45;100.00;97899.44;5002755;28;20037;-55
2023/08/02 11:02:10;;;;;;;4.30;0.20;;;;;;;21.39;100.00;97900.72;5008950;28;20056;-63
2023/08/02 11:04:39;;;;;;;8.75;0.52;;;;;;;21.34;100.00;97898.16;5008235;28;20038;-50
2023/08/02 11:07:12;;;;;;;2.33;0.95;;;;;;;21.48;100.00;97896.06;5010711;28;20049;-65
2023/08/02 11:09:38;;;;;;;1.63;0.43;;;;;;;21.56;100.00;97887.16;4998352;28;20087;-62
2023/08/02 11:12:18;;;;;;;5.53;0.47;;;;;;;21.28;100.00;97880.59;4993554;28;20482;-60
2023/08/02 11:14:45;;;;;;;2.08;0.57;;;;;;;21.22;100.00;97884.59;4996117;28;20120;-61
2023/08/02 11:17:15;;;;;;;4.07;0.40;;;;;;;21.27;100.00;97882.53;5007966;28;20033;-60
2023/08/02 11:19:51;;;;;;;5.28;1.08;;;;;;;21.43;100.00;97888.16;5013423;28;20029;-59
2023/08/02 11:22:18;;;;;;;6.03;1.08;;;;;;;21.28;100.00;97883.31;5010758;28;20052;-61